Etusivu
METAR-TAF:

METAR-TAF

Lentoasemat :

Zagreb, Kroatia

Franjo Tuđmanin lentoasema

Leveyspiiri: 45-44N, Pituuspiiri: 016-04E, korkeus merenpinnasta: 106 m

Tämänhetkinen sää

Tämä raportti tehtiin 15 minuuttia sitten, kello 06.30 UTC
Tuuli 9 kn koillisesta, vaihdellen pohjoisen/luoteen ja idän välillä
Lämpötila 18°C
Kosteus 68%
Ilmanpaine 1025 hPa
Näkyvyys 10 km tai enemmän
ei pilviä alle 1500 m:ssä eikä cumulonimbus-pilviä

METAR: LDZA 200630Z 04009KT 330V090 CAVOK 18/12 Q1025 NOSIG

Aika: 08:45 (06:45 UTC)

Sääennuste

Tämä raportti tehtiin 1 tunti ja 20 minuuttia sitten, kello 05.25 UTC
Ennuste voimassa 20. päivästä klo 06 UTC - 21. päivään klo 06 UTC
Tuuli 2 kn eri suunnista
Näkyvyys 10 km tai enemmän
ei pilviä alle 1500 m:ssä eikä cumulonimbus-pilviä
Ajoittain
20. päivästä klo 07 UTC - 20. päivään klo 18 UTC
Tuuli 8 kn idästä/koillisesta

TAF: LDZA 200525Z 2006/2106 VRB02KT CAVOK TX24/2012Z TN09/2104Z TEMPO 2007/2018 06008KT

Säähavainnot ja -ennusteet yli 4000 lentoasemalta (METAR- ja TAF-raportit).

Käytössä olevat sääasemat on merkitty karttaan keltaisilla ja punaisilla pisteillä.

Aseta hiiri pisteen päälle nähdäksesi sääaseman nimen.

Klikkaa sitten nähdäksesi säähavainnot ja -ennusteet.

Kartan vaihtaminen: klikkaa mustalla rastilla varustettuja vihreitä pisteitä, niin voit zoomata sisään; viivalla varustettua vihreää pistettä, niin voit zoomata ulos tai vihreitä nuolia, niin pääset viereisille kartoille.


METAR-TAF: